Map

Track Data

SID SEASON NUMBER BASIN SUBBASIN NAME ISO_TIME NATURE LAT LON WMO_WIND WMO_PRES WMO_AGENCY TRACK_TYPE DIST2LAND LANDFALL IFLAG USA_AGENCY USA_ATCF_ID USA_LAT USA_LON USA_RECORD USA_STATUS USA_WIND USA_PRES USA_SSHS USA_R34_NE USA_R34_SE USA_R34_SW USA_R34_NW USA_R50_NE USA_R50_SE USA_R50_SW USA_R50_NW USA_R64_NE USA_R64_SE USA_R64_SW USA_R64_NW USA_POCI USA_ROCI USA_RMW USA_EYE TOKYO_LAT TOKYO_LON TOKYO_GRADE TOKYO_WIND TOKYO_PRES TOKYO_R50_DIR TOKYO_R50_LONG TOKYO_R50_SHORT TOKYO_R30_DIR TOKYO_R30_LONG TOKYO_R30_SHORT TOKYO_LAND CMA_LAT CMA_LON CMA_CAT CMA_WIND CMA_PRES HKO_LAT HKO_LON HKO_CAT HKO_WIND HKO_PRES NEWDELHI_LAT NEWDELHI_LON NEWDELHI_GRADE NEWDELHI_WIND NEWDELHI_PRES NEWDELHI_CI NEWDELHI_DP NEWDELHI_POCI REUNION_LAT REUNION_LON REUNION_TYPE REUNION_WIND REUNION_PRES REUNION_TNUM REUNION_CI REUNION_RMW REUNION_R34_NE REUNION_R34_SE REUNION_R34_SW REUNION_R34_NW REUNION_R50_NE REUNION_R50_SE REUNION_R50_SW REUNION_R50_NW REUNION_R64_NE REUNION_R64_SE REUNION_R64_SW REUNION_R64_NW BOM_LAT BOM_LON BOM_TYPE BOM_WIND BOM_PRES BOM_TNUM BOM_CI BOM_RMW BOM_R34_NE BOM_R34_SE BOM_R34_SW BOM_R34_NW BOM_R50_NE BOM_R50_SE BOM_R50_SW BOM_R50_NW BOM_R64_NE BOM_R64_SE BOM_R64_SW BOM_R64_NW BOM_ROCI BOM_POCI BOM_EYE BOM_POS_METHOD BOM_PRES_METHOD NADI_LAT NADI_LON NADI_CAT NADI_WIND NADI_PRES WELLINGTON_LAT WELLINGTON_LON WELLINGTON_WIND WELLINGTON_PRES DS824_LAT DS824_LON DS824_STAGE DS824_WIND DS824_PRES TD9636_LAT TD9636_LON TD9636_STAGE TD9636_WIND TD9636_PRES TD9635_LAT TD9635_LON TD9635_WIND TD9635_PRES TD9635_ROCI NEUMANN_LAT NEUMANN_LON NEUMANN_CLASS NEUMANN_WIND NEUMANN_PRES MLC_LAT MLC_LON MLC_CLASS MLC_WIND MLC_PRES USA_GUST BOM_GUST BOM_GUST_PER REUNION_GUST REUNION_GUST_PER USA_SEAHGT USA_SEARAD_NE USA_SEARAD_SE USA_SEARAD_SW USA_SEARAD_NW STORM_SPEED STORM_DIR
1885344S14067 1886 54 SI MM NOT_NAMED 1885-12-10 00:00:00 TS -14.0000 67.2000 main 1218 1194 _________O____ -1 -14.0000 67.2000 TC 5 232
1885344S14067 1886 54 SI MM NOT_NAMED 1885-12-10 03:00:00 TS -14.1526 66.9951 main 1188 1163 _________P____ -1 -14.1526 66.9951 TC 5 232
1885344S14067 1886 54 SI MM NOT_NAMED 1885-12-10 06:00:00 TS -14.3000 66.8000 main 1163 1139 _________O____ -1 -14.3000 66.8000 TC 5 232
1885344S14067 1886 54 SI MM NOT_NAMED 1885-12-10 09:00:00 TS -14.4424 66.6149 main 1139 1109 _________P____ -1 -14.4424 66.6149 TC 5 232
1885344S14067 1886 54 SI MM NOT_NAMED 1885-12-10 12:00:00 TS -14.6000 66.4000 main 1109 1070 _________O____ -1 -14.6000 66.4000 TC 6 235
1885344S14067 1886 54 SI MM NOT_NAMED 1885-12-10 15:00:00 TS -14.7850 66.1150 main 1070 1030 _________P____ -1 -14.7850 66.1150 TC 7 235
1885344S14067 1886 54 SI MM NOT_NAMED 1885-12-10 18:00:00 TS -15.0000 65.8000 main 1030 991 _________O____ -1 -15.0000 65.8000 TC 8 232
1885344S14067 1886 54 SI MM NOT_NAMED 1885-12-10 21:00:00 TS -15.2500 65.5000 main 991 946 _________P____ -1 -15.2500 65.5000 TC 8 229
1885344S14067 1886 54 SI MM NOT_NAMED 1885-12-11 00:00:00 TS -15.5000 65.2000 main 946 906 _________O____ -1 -15.5000 65.2000 TC 7 232
1885344S14067 1886 54 SI MM NOT_NAMED 1885-12-11 03:00:00 TS -15.7000 64.8924 main 906 867 _________P____ -1 -15.7000 64.8924 TC 7 235
1885344S14067 1886 54 SI MM NOT_NAMED 1885-12-11 06:00:00 TS -15.9000 64.6000 main 867 837 _________O____ -1 -15.9000 64.6000 TC 7 230
1885344S14067 1886 54 SI MM NOT_NAMED 1885-12-11 09:00:00 TS -16.1499 64.3425 main 828 792 _________P____ -1 -16.1499 64.3425 TC 7 224
1885344S14067 1886 54 SI MM NOT_NAMED 1885-12-11 12:00:00 TS -16.4000 64.1000 main 792 762 _________O____ -1 -16.4000 64.1000 TC 6 226
1885344S14067 1886 54 SI MM NOT_NAMED 1885-12-11 15:00:00 TS -16.5999 63.8574 main 762 723 _________P____ -1 -16.5999 63.8574 TC 6 230
1885344S14067 1886 54 SI MM NOT_NAMED 1885-12-11 18:00:00 TS -16.8000 63.6000 main 723 684 _________O____ -1 -16.8000 63.6000 TC 7 230
1885344S14067 1886 54 SI MM NOT_NAMED 1885-12-11 21:00:00 TS -17.0350 63.3149 main 684 640 _________P____ -1 -17.0350 63.3149 TC 8 229
1885344S14067 1886 54 SI MM NOT_NAMED 1885-12-12 00:00:00 TS -17.3000 63.0000 main 640 595 _________O____ -1 -17.3000 63.0000 TC 8 228
1885344S14067 1886 54 SI MM NOT_NAMED 1885-12-12 03:00:00 TS -17.5925 62.6575 main 595 542 _________P____ -1 -17.5925 62.6575 TC 9 228
1885344S14067 1886 54 SI MM NOT_NAMED 1885-12-12 06:00:00 TS -17.9000 62.3000 main 542 499 _________O____ -1 -17.9000 62.3000 TC 9 228
1885344S14067 1886 54 SI MM NOT_NAMED 1885-12-12 09:00:00 TS -18.1924 61.9498 main 489 446 _________P____ -1 -18.1924 61.9498 TC 9 228
1885344S14067 1886 54 SI MM NOT_NAMED 1885-12-12 12:00:00 TS -18.5000 61.6000 main 446 403 _________O____ -1 -18.5000 61.6000 TC 9 226
1885344S14067 1886 54 SI MM NOT_NAMED 1885-12-12 15:00:00 TS -18.8425 61.2424 main 393 346 _________P____ -1 -18.8425 61.2424 TC 10 223
1885344S14067 1886 54 SI MM NOT_NAMED 1885-12-12 18:00:00 TS -19.2000 60.9000 main 346 306 _________O____ -1 -19.2000 60.9000 TC 10 221
1885344S14067 1886 54 SI MM NOT_NAMED 1885-12-12 21:00:00 TS -19.5574 60.5849 main 302 264 _________P____ -1 -19.5574 60.5849 TC 9 219
1885344S14067 1886 54 SI MM NOT_NAMED 1885-12-13 00:00:00 TS -19.9000 60.3000 main 264 240 _________O____ -1 -19.9000 60.3000 TC 8 218
1885344S14067 1886 54 SI MM NOT_NAMED 1885-12-13 03:00:00 TS -20.1999 60.0423 main 229 208 _________P____ -1 -20.1999 60.0423 TC 8 218
1885344S14067 1886 54 SI MM NOT_NAMED 1885-12-13 06:00:00 TS -20.5000 59.8000 main 209 192 _________O____ -1 -20.5000 59.8000 TC 8 216
1885344S14067 1886 54 SI MM NOT_NAMED 1885-12-13 09:00:00 TS -20.8425 59.5425 main 185 179 _________P____ -1 -20.8425 59.5425 TC 8 214
1885344S14067 1886 54 SI MM NOT_NAMED 1885-12-13 12:00:00 TS -21.2000 59.3000 main 183 179 _________O____ -1 -21.2000 59.3000 TC 8 211
1885344S14067 1886 54 SI MM NOT_NAMED 1885-12-13 15:00:00 TS -21.5499 59.0924 main 183 182 _________P____ -1 -21.5499 59.0924 TC 8 208
1885344S14067 1886 54 SI MM NOT_NAMED 1885-12-13 18:00:00 TS -21.9000 58.9000 main 199 199 _________O____ -1 -21.9000 58.9000 TC 8 208
1885344S14067 1886 54 SI MM NOT_NAMED 1885-12-13 21:00:00 TS -22.2349 58.7073 main 216 216 _________P____ -1 -22.2349 58.7073 TC 8 208
1885344S14067 1886 54 SI MM NOT_NAMED 1885-12-14 00:00:00 TS -22.6000 58.5000 main 248 248 _________O____ -1 -22.6000 58.5000 TC 9 208
1885344S14067 1886 54 SI MM NOT_NAMED 1885-12-14 03:00:00 TS -23.0350 58.2500 main 286 286 _________P____ -1 -23.0350 58.2500 TC 10 207
1885344S14067 1886 54 SI MM NOT_NAMED 1885-12-14 06:00:00 TS -23.5000 58.0000 main 334 334 _________O____ -1 -23.5000 58.0000 TC 10 205
1885344S14067 1886 54 SI MM NOT_NAMED 1885-12-14 09:00:00 TS -23.9499 57.7923 main 355 355 _________P____ -1 -23.9499 57.7923 TC 10 202
1885344S14067 1886 54 SI MM NOT_NAMED 1885-12-14 12:00:00 TS -24.4000 57.6000 main 392 392 _________O____ -1 -24.4000 57.6000 TC 10 202
1885344S14067 1886 54 SI MM NOT_NAMED 1885-12-14 15:00:00 TS -24.8425 57.3924 main 422 422 _________P____ -1 -24.8425 57.3924 TC 10 202
1885344S14067 1886 54 SI MM NOT_NAMED 1885-12-14 18:00:00 TS -25.3000 57.2000 main 465 465 _________O____ -1 -25.3000 57.2000 TC 10 199
1885344S14067 1886 54 SI MM NOT_NAMED 1885-12-14 21:00:00 TS -25.7900 57.0402 main 512 512 _________P____ -1 -25.7900 57.0402 TC 10 195
1885344S14067 1886 54 SI MM NOT_NAMED 1885-12-15 00:00:00 TS -26.3000 56.9000 main 563 _________O____ -1 -26.3000 56.9000 TC 11 194

About IBTrACS Database

This database is a web-friendly format of International Best Track Archive for Climate Stewardship (IBTrACS), a global best track data archive curated by NOAA dating back to 1842.

Updated: 2021-12-06